createdAt,value
2022-10-19T00:00:33.943Z,8.52
2022-10-19T00:05:35.360Z,5.47
2022-10-19T00:10:40.654Z,5.20
2022-10-19T00:15:42.341Z,5.00
2022-10-19T00:20:43.751Z,3.25
2022-10-19T00:25:55.404Z,6.32
2022-10-19T00:30:57.034Z,5.38
2022-10-19T00:35:58.518Z,7.10
2022-10-19T00:40:59.919Z,4.72
2022-10-19T00:46:01.317Z,16.33
2022-10-19T00:51:02.787Z,7.63
2022-10-19T00:56:09.935Z,7.88
2022-10-19T01:01:15.822Z,6.90
2022-10-19T01:06:18.177Z,4.35
2022-10-19T01:11:35.674Z,4.95
2022-10-19T01:16:50.017Z,3.63
2022-10-19T01:22:01.539Z,4.30
2022-10-19T01:27:26.919Z,3.70
2022-10-19T01:32:46.713Z,4.78
2022-10-19T01:38:03.757Z,3.40
2022-10-19T01:43:17.600Z,4.18
2022-10-19T01:48:33.483Z,2.95
2022-10-19T01:53:41.175Z,5.72
2022-10-19T01:58:45.624Z,4.45
2022-10-19T02:03:48.470Z,5.35
2022-10-19T02:08:52.719Z,3.45
2022-10-19T02:14:01.011Z,6.65
2022-10-19T02:19:03.923Z,4.53
2022-10-19T02:24:05.499Z,5.70
2022-10-19T02:29:07.917Z,4.78
2022-10-19T02:34:10.236Z,6.07
2022-10-19T02:39:11.670Z,4.38
2022-10-19T02:44:38.115Z,4.20
2022-10-19T02:49:39.939Z,5.72
2022-10-19T02:54:43.212Z,7.25
2022-10-19T02:59:45.006Z,5.65
2022-10-19T03:09:49.408Z,5.88
2022-10-19T03:14:50.811Z,4.25
2022-10-19T03:19:52.226Z,6.95
2022-10-19T03:24:53.607Z,8.68
2022-10-19T03:29:55.007Z,5.40
2022-10-19T03:34:56.422Z,6.78
2022-10-19T03:39:57.858Z,7.15
2022-10-19T03:44:59.236Z,3.88
2022-10-19T03:50:00.659Z,6.15
2022-10-19T03:55:02.079Z,5.05
2022-10-19T04:00:04.899Z,4.47
2022-10-19T04:05:13.417Z,4.60
2022-10-19T04:10:14.905Z,8.07
2022-10-19T04:15:16.350Z,6.03
2022-10-19T04:20:17.770Z,3.63
2022-10-19T04:25:19.331Z,6.90
2022-10-19T04:30:20.716Z,5.68
2022-10-19T04:35:22.232Z,5.03
2022-10-19T04:40:23.621Z,7.85
2022-10-19T04:45:24.994Z,5.47
2022-10-19T04:50:26.408Z,8.32
2022-10-19T04:55:30.218Z,6.90
2022-10-19T05:00:31.604Z,6.57
2022-10-19T05:05:34.003Z,7.57
2022-10-19T05:10:36.683Z,12.35
2022-10-19T05:15:38.086Z,6.90
2022-10-19T05:20:39.474Z,9.38
2022-10-19T05:25:40.850Z,10.10
2022-10-19T05:30:46.650Z,10.57
2022-10-19T05:35:50.258Z,12.75
2022-10-19T05:40:53.645Z,11.25
2022-10-19T05:45:55.230Z,13.77
2022-10-19T05:50:56.603Z,13.32
2022-10-19T05:55:58.135Z,16.25
2022-10-19T06:01:00.616Z,12.95
2022-10-19T06:06:03.700Z,10.98
2022-10-19T06:11:26.581Z,15.80
2022-10-19T06:16:29.534Z,8.30
2022-10-19T06:21:32.634Z,8.00
2022-10-19T06:26:34.864Z,8.40
2022-10-19T06:31:36.394Z,11.57
2022-10-19T06:36:38.053Z,12.98
2022-10-19T06:41:39.436Z,9.93
2022-10-19T06:46:53.207Z,10.30
2022-10-19T06:51:54.592Z,15.73
2022-10-19T06:56:55.998Z,13.68
2022-10-19T07:01:57.373Z,16.33
2022-10-19T07:06:58.823Z,12.70
2022-10-19T07:12:00.231Z,19.13
2022-10-19T07:17:01.622Z,13.77
2022-10-19T07:22:03.223Z,16.33
2022-10-19T07:27:04.669Z,12.63
2022-10-19T07:32:06.182Z,17.17
2022-10-19T07:37:07.602Z,12.20
2022-10-19T07:42:09.013Z,13.98
2022-10-19T07:47:10.567Z,16.70
2022-10-19T07:52:11.998Z,13.05
2022-10-19T07:57:13.390Z,11.50
2022-10-19T08:02:16.354Z,15.95
2022-10-19T08:07:17.814Z,12.75
2022-10-19T08:12:19.238Z,15.57
2022-10-19T08:17:20.622Z,15.10
2022-10-19T08:22:22.015Z,13.55
2022-10-19T08:27:23.478Z,12.70
2022-10-19T08:32:24.947Z,13.90
2022-10-19T08:37:40.664Z,15.10
2022-10-19T08:43:09.651Z,18.40
2022-10-19T08:48:24.076Z,15.90
2022-10-19T08:53:49.815Z,16.17
2022-10-19T08:59:12.565Z,14.63
2022-10-19T09:04:22.919Z,16.75
2022-10-19T09:09:25.744Z,16.00
2022-10-19T09:14:31.717Z,17.35
2022-10-19T09:19:33.211Z,14.07
2022-10-19T09:24:47.196Z,14.57
2022-10-19T09:29:54.382Z,11.93
2022-10-19T09:35:01.697Z,13.20
2022-10-19T09:40:05.450Z,17.38
2022-10-19T09:45:19.645Z,12.48
2022-10-19T09:50:23.674Z,17.08
2022-10-19T09:55:36.523Z,13.20
2022-10-19T10:00:41.257Z,15.60
2022-10-19T10:05:47.719Z,10.52
2022-10-19T10:11:07.929Z,12.80
2022-10-19T10:16:14.039Z,14.98
2022-10-19T10:21:25.545Z,14.80
2022-10-19T10:26:28.467Z,14.13
2022-10-19T10:31:30.120Z,15.10
2022-10-19T10:36:31.880Z,12.07
2022-10-19T10:41:42.710Z,14.13
2022-10-19T10:46:59.125Z,12.02
2022-10-19T10:52:05.528Z,12.70
2022-10-19T10:57:20.924Z,16.52
2022-10-19T11:02:44.042Z,13.52
2022-10-19T11:07:48.996Z,10.02
2022-10-19T11:13:14.588Z,9.25
2022-10-19T11:18:34.410Z,15.02
2022-10-19T11:23:56.592Z,11.90
2022-10-19T11:29:34.022Z,10.15
2022-10-19T11:34:50.173Z,10.23
2022-10-19T11:40:09.597Z,11.10
2022-10-19T11:45:20.004Z,14.57
2022-10-19T11:50:54.118Z,10.98
2022-10-19T11:56:39.237Z,13.02
2022-10-19T12:02:00.721Z,11.68
2022-10-19T12:07:18.507Z,8.82
2022-10-19T12:12:32.172Z,8.32
2022-10-19T12:17:37.830Z,8.63
2022-10-19T12:22:40.038Z,11.85
2022-10-19T12:27:42.544Z,9.52
2022-10-19T12:32:55.159Z,8.65
2022-10-19T12:38:23.282Z,6.88
2022-10-19T12:43:33.027Z,7.18
2022-10-19T12:48:34.641Z,8.60
2022-10-19T12:53:43.146Z,9.95
2022-10-19T13:04:13.642Z,6.80
2022-10-19T13:09:39.284Z,11.25
2022-10-19T13:14:43.747Z,8.68
2022-10-19T13:19:45.199Z,10.07
2022-10-19T13:25:25.295Z,6.45
2022-10-19T13:30:35.687Z,8.13
2022-10-19T13:35:37.246Z,6.95
2022-10-19T13:41:01.524Z,7.65
2022-10-19T13:46:02.870Z,7.78
2022-10-19T13:51:24.970Z,9.00
2022-10-19T13:56:41.417Z,10.32
2022-10-19T14:02:15.901Z,9.95
2022-10-19T14:07:26.190Z,8.57
2022-10-19T14:12:29.973Z,9.93
2022-10-19T14:17:31.400Z,10.15
2022-10-19T14:22:34.972Z,9.85
2022-10-19T14:27:36.753Z,11.73
2022-10-19T14:37:45.189Z,8.65
2022-10-19T14:42:48.268Z,7.75
2022-10-19T14:47:55.726Z,8.88
2022-10-19T14:53:23.351Z,11.75
2022-10-19T14:58:28.604Z,10.98
2022-10-19T15:03:30.928Z,9.93
2022-10-19T15:08:45.715Z,9.35
2022-10-19T15:13:47.542Z,9.05
2022-10-19T15:18:50.321Z,7.80
2022-10-19T15:23:52.978Z,8.45
2022-10-19T15:29:06.593Z,7.40
2022-10-19T15:34:24.489Z,7.40
2022-10-19T15:39:41.132Z,9.93
2022-10-19T15:44:46.240Z,8.88
2022-10-19T15:49:53.979Z,6.38
2022-10-19T15:54:57.706Z,9.27
2022-10-19T16:00:10.891Z,6.63
2022-10-19T16:05:12.387Z,9.30
2022-10-19T16:10:19.573Z,8.45
2022-10-19T16:15:23.039Z,7.00
2022-10-19T16:20:27.095Z,7.30
2022-10-19T16:25:28.568Z,7.32
2022-10-19T16:30:30.001Z,7.53
2022-10-19T16:35:31.417Z,8.25
2022-10-19T16:40:32.835Z,8.02
2022-10-19T16:45:34.361Z,10.60
2022-10-19T16:50:35.803Z,7.85
2022-10-19T16:55:37.987Z,7.50
2022-10-19T17:00:39.418Z,6.45
2022-10-19T17:05:40.806Z,7.93
2022-10-19T17:10:42.204Z,6.75
2022-10-19T17:15:43.776Z,7.30
2022-10-19T17:20:45.216Z,7.95
2022-10-19T17:25:48.054Z,7.13
2022-10-19T17:30:49.498Z,9.43
2022-10-19T17:35:50.926Z,7.97
2022-10-19T17:40:52.304Z,8.93
2022-10-19T17:46:04.870Z,13.13
2022-10-19T17:51:08.896Z,10.00
2022-10-19T17:56:12.460Z,9.43
2022-10-19T18:01:15.618Z,9.27
2022-10-19T18:06:22.756Z,8.57
2022-10-19T18:11:30.288Z,7.18
2022-10-19T18:16:40.840Z,7.95
2022-10-19T18:21:44.576Z,9.63
2022-10-19T18:26:46.871Z,7.03
2022-10-19T18:31:49.160Z,8.05
2022-10-19T18:36:51.252Z,8.25
2022-10-19T18:41:53.469Z,8.40
2022-10-19T18:46:55.595Z,9.77
2022-10-19T18:51:56.991Z,10.02
2022-10-19T18:56:58.364Z,8.27
2022-10-19T19:01:59.835Z,10.82
2022-10-19T19:07:01.292Z,8.40
2022-10-19T19:12:02.685Z,10.43
2022-10-19T19:17:04.349Z,10.02
2022-10-19T19:22:07.959Z,9.63
2022-10-19T19:27:10.452Z,9.55
2022-10-19T19:32:11.854Z,9.73
2022-10-19T19:37:14.178Z,10.63
2022-10-19T19:42:15.622Z,10.00
2022-10-19T19:47:17.083Z,12.15
2022-10-19T19:52:18.501Z,10.65
2022-10-19T19:57:19.941Z,10.63
2022-10-19T20:02:21.404Z,9.65
2022-10-19T20:12:47.206Z,11.80
2022-10-19T20:17:48.661Z,11.27
2022-10-19T20:22:50.284Z,13.15
2022-10-19T20:27:51.726Z,11.07
2022-10-19T20:32:53.764Z,11.50
2022-10-19T20:37:55.176Z,14.25
2022-10-19T20:42:56.558Z,10.82
2022-10-19T20:47:57.943Z,13.05
2022-10-19T20:52:59.368Z,12.65
2022-10-19T20:58:00.789Z,13.85
2022-10-19T21:03:02.199Z,13.20
2022-10-19T21:08:03.727Z,13.45
2022-10-19T21:13:05.156Z,13.70
2022-10-19T21:18:06.543Z,14.35
2022-10-19T21:23:07.953Z,22.30
2022-10-19T21:28:09.372Z,13.55
2022-10-19T21:33:10.796Z,13.95
2022-10-19T21:38:12.191Z,14.63
2022-10-19T21:43:13.731Z,14.10
2022-10-19T21:48:15.153Z,13.55
2022-10-19T21:53:20.034Z,16.50
2022-10-19T21:58:21.466Z,14.05
2022-10-19T22:03:22.862Z,16.13
2022-10-19T22:08:24.542Z,14.93
2022-10-19T22:13:25.930Z,16.77
2022-10-19T22:18:27.301Z,16.52
2022-10-19T22:23:28.827Z,15.85
2022-10-19T22:28:30.250Z,16.55
2022-10-19T22:33:31.681Z,14.57
2022-10-19T22:38:33.943Z,15.02
2022-10-19T22:43:35.474Z,14.68
2022-10-19T22:48:36.909Z,15.05
2022-10-19T22:53:38.342Z,14.85
2022-10-19T22:58:39.987Z,15.10
2022-10-19T23:03:41.956Z,16.25
2022-10-19T23:08:44.596Z,16.25
2022-10-19T23:13:46.350Z,14.95
2022-10-19T23:18:48.230Z,16.17
2022-10-19T23:23:49.674Z,16.85
2022-10-19T23:28:51.479Z,20.30
2022-10-19T23:33:53.779Z,17.75
2022-10-19T23:38:56.593Z,17.52
2022-10-19T23:43:58.012Z,17.15
2022-10-19T23:48:59.404Z,18.45
2022-10-19T23:54:00.824Z,19.35
2022-10-19T23:59:02.212Z,25.13
